METAR Data
IDs: Format: Raw Decoded Include TAF

Data at: 2107 UTC 24 Mar 2019

KHRL 242052Z 14018G24KT 10SM FEW033 BKN043 28/19 A2998 RMK AO2 SLP153 T02830189 56022
KHRL 241952Z 15014G24KT 10SM BKN039 27/19 A3000 RMK AO2 SLP157 T02720189
KHRL 241852Z 16014KT 10SM FEW030 BKN042 28/20 A3003 RMK AO2 SLP167 T02780200
KHRL 241752Z 16016G23KT 10SM FEW030 28/19 A3005 RMK AO2 SLP175 T02830194 10283 20183 58010
KHRL 241712Z 16017KT 10SM SCT027 BKN034 BKN041 28/19 A3006 RMK AO2 T02780194
KHRL 241701Z 17017G22KT 10SM BKN026 BKN036 27/19 A3007 RMK AO2 T02670194
KHRL 241652Z 16014KT 10SM SCT025 BKN033 27/19 A3007 RMK AO2 SLP182 T02670194
KHRL 241628Z 17015KT 10SM SCT023 BKN033 27/20 A3008 RMK AO2 T02670200
KHRL 241552Z 17016KT 10SM SCT017 BKN023 26/20 A3008 RMK AO2 SLP185 T02560200
KHRL 241550Z 17015KT 10SM SCT017 BKN022 25/20 A3008 RMK AO2
KHRL 241452Z 16009KT 8SM OVC010 23/21 A3007 RMK AO2 CIG 007V012 SLP182 T02280211 51020
KHRL 241352Z 16008KT 6SM BR BKN007 OVC029 22/21 A3005 RMK AO2 CIG 006V011 SLP175 T02170206
KHRL 241252Z 00000KT 5SM BR OVC009 19/19 A3003 RMK AO2 CIG 007V012 SLP170 T01940189
KHRL 241207Z 12003KT 4SM BR OVC009 18/18 A3002 RMK AO2 T01830178
KHRL 241152Z 12003KT 4SM BR OVC010 18/17 A3001 RMK AO2 SLP162 T01780172 10194 20172 53001
KHRL 241132Z 14004KT 4SM BR BKN010 BKN029 19/18 A3001 RMK AO2 T01890178
KHRL 241052Z 15006KT 8SM CLR 19/18 A3000 RMK AO2 SLP157 T01890178
KHRL 240952Z AUTO 16007KT 10SM FEW018 19/18 A3000 RMK AO2 SLP159 T01940183
KHRL 240852Z AUTO 16006KT 10SM CLR 19/18 A3001 RMK AO2 SLP161 T01890178 58015
KHRL 240752Z AUTO 14006KT 9SM CLR 18/17 A3002 RMK AO2 SLP166 T01780167
KHRL 240652Z AUTO 15004KT 10SM CLR 19/17 A3004 RMK AO2 SLP172 T01890172
KHRL 240552Z AUTO 16008KT 10SM CLR 19/18 A3005 RMK AO2 SLP176 T01940178 10233 20194 402610172 55005
KHRL 240452Z AUTO 15013KT 10SM CLR 21/18 A3004 RMK AO2 SLP173 T02060183
KHRL 240352Z 14011KT 10SM CLR 21/18 A3006 RMK AO2 SLP179 T02060178
KHRL 240252Z 13009KT 10SM OVC055 22/18 A3007 RMK AO2 SLP180 T02220178 53020
KHRL 240152Z 13012KT 10SM OVC055 22/18 A3003 RMK AO2 SLP169 T02220178
KHRL 240052Z 14011KT 10SM OVC049 23/17 A3002 RMK AO2 SLP166 T02280172
KHRL 232352Z 14012KT 10SM SCT029 BKN035 OVC046 23/17 A3001 RMK AO2 SLP161 T02330172 10261 20233 53007
KHRL 232328Z 14013KT 10SM BKN028 OVC034 23/17 A3000 RMK AO2 T02330172
KHRL 232252Z 13018KT 10SM OVC032 24/17 A2999 RMK AO2 SLP155 T02390172
KHRL 232152Z 14015KT 10SM FEW030 BKN040 OVC049 24/17 A2998 RMK AO2 SLP153 T02440172
KHRL 232052Z 15019KT 10SM BKN034 OVC042 25/17 A2999 RMK AO2 SLP154 T02500172 56018
KHRL 231952Z 16015KT 10SM OVC048 26/18 A3000 RMK AO2 SLP159 T02610178
KHRL 231852Z 16015KT 10SM BKN036 OVC048 26/17 A3002 RMK AO2 SLP166 T02560172
KHRL 231752Z 15015KT 10SM SCT029 OVC049 26/18 A3004 RMK AO2 SLP173 T02610183 10261 20172 58004
KHRL 231652Z 15013KT 10SM FEW028 SCT034 OVC044 24/18 A3006 RMK AO2 SLP179 T02440178
KHRL 231629Z 15013KT 10SM BKN030 BKN038 OVC045 24/17 A3007 RMK AO2 T02440172
KHRL 231552Z 16019G23KT 10SM BKN026 25/18 A3006 RMK AO2 PK WND 15026/1527 SLP178 T02500183
KHRL 231536Z 15018G26KT 10SM BKN024 25/18 A3006 RMK AO2 PK WND 15026/1527 T02500183
KHRL 231452Z 14015KT 10SM CLR 23/18 A3005 RMK AO2 SLP177 T02330178 51017
KHRL 231352Z 14009KT 10SM FEW035 FEW044 20/17 A3004 RMK AO2 SLP171 T02000172
KHRL 231252Z 10004KT 10SM FEW060 17/16 A3004 RMK AO2 SLP171 T01720161
KHRL 231152Z 14008KT 10SM CLR 18/17 A3000 RMK AO2 SLP160 T01830167 10206 20178 53001
KHRL 231052Z 12007KT 10SM CLR 18/16 A3000 RMK AO2 SLP157 T01830161
KHRL 230952Z AUTO 14005KT 10SM CLR 19/16 A3000 RMK AO2 SLP158 T01890161